Latest Weather Observations for Gayndah

IDQ60801

Issued at 3:05 pm EST Thursday 28 August 2014 (issued every 30 minutes, with the page automatically refreshed every 10 minutes)

About weather observations | Map of weather stations | Latest weather observations for QLD | Other Formats
Station Details ID: 039066 Name: GAYNDAH AIRPORT Lat: -25.62 Lon: 151.62 Height: 110.9 m
Data from the previous 72 hours. | See also: Recent months at Gayndah
Date/Time
EST
Temp
°C
App
Temp
°C
Dew
Point
Rel
Hum
%
Delta-T
°C
Wind Press
QNH
hPa
Press
MSL
hPa
Rain
since 9 am
mm
Dir
 
Spd
km/h
Gust
km/h
Spd
kts
Gust
kts
28/03:00pm 24.5 20.6 7.2 33 9.1 SSE 17 33 9 18 1016.4 1016.2 0.0
28/02:30pm 24.4 20.7 8.0 35 8.7 SSE 17 26 9 14 1016.3 1016.1 0.0
28/02:00pm 24.7 21.1 8.2 35 8.8 S 17 26 9 14 1016.2 1016.0 0.0
28/01:30pm 23.6 20.9 7.3 35 8.5 S 11 24 6 13 1016.2 1016.0 0.0
28/01:00pm 24.0 21.1 9.6 40 7.9 SSW 15 24 8 13 1016.1 1015.9 0.0
28/12:30pm 24.0 22.4 10.3 42 7.6 SSW 9 15 5 8 1016.4 1016.2 0.0
28/12:00pm 23.0 19.1 8.7 40 7.6 S 19 28 10 15 1016.6 1016.4 0.0
28/11:30am 21.8 18.8 9.3 45 6.7 S 15 28 8 15 1017.1 1016.9 0.0
28/11:00am 20.8 17.8 9.4 48 6.1 SW 15 26 8 14 1017.4 1017.2 0.0
28/10:30am 20.6 17.3 9.5 49 6.0 SSW 17 26 9 14 1017.8 1017.7 0.0
28/10:00am 19.7 17.3 9.9 53 5.3 SSW 13 24 7 13 1018.1 1018.0 0.0
28/09:30am 18.4 15.8 9.2 55 4.8 SW 13 22 7 12 1018.0 1017.9 0.0
28/09:00am 17.4 14.0 9.3 59 4.2 SSW 17 24 9 13 1018.3 1018.2 0.2
28/08:30am 16.3 12.9 9.3 63 3.6 SW 17 24 9 13 1018.2 1018.1 0.2
28/08:00am 15.6 13.0 9.3 66 3.3 SSW 13 19 7 10 1017.9 1017.8 0.2
28/07:30am 14.3 10.5 8.9 70 2.8 SW 19 24 10 13 1017.6 1017.4 0.2
28/07:00am 13.4 12.8 8.9 74 2.3 SW 2 4 1 2 1017.3 1017.1 0.2
28/06:30am 12.7 9.9 8.6 76 2.1 SW 13 20 7 11 1016.9 1016.7 0.2
28/06:00am 12.9 10.5 8.6 75 2.2 WSW 11 19 6 10 1016.9 1016.7 0.2
28/05:30am 12.6 10.9 8.3 75 2.1 SW 7 9 4 5 1016.6 1016.4 0.2
28/05:00am 12.7 11.1 8.2 74 2.2 WSW 6 11 3 6 1016.2 1016.0 0.2
28/04:30am 12.5 10.8 8.2 75 2.1 WSW 7 11 4 6 1016.0 1015.8 0.2
28/04:00am 12.6 10.4 7.9 73 2.3 WSW 9 13 5 7 1015.8 1015.6 0.2
28/03:30am 12.6 10.4 7.7 72 2.4 WSW 9 13 5 7 1015.8 1015.6 0.2
28/03:00am 12.1 9.5 7.6 74 2.2 WSW 11 15 6 8 1015.8 1015.6 0.2
28/02:30am 11.7 9.3 7.2 74 2.2 SW 9 13 5 7 1015.8 1015.6 0.2
28/02:00am 11.7 9.3 6.8 72 2.3 WSW 9 19 5 10 1015.8 1015.6 0.2
28/01:30am 12.2 9.0 6.9 70 2.6 WSW 13 19 7 10 1016.0 1015.8 0.2
28/01:00am 12.0 9.5 6.7 70 2.5 WSW 9 13 5 7 1016.2 1016.0 0.2
28/12:30am 11.7 9.7 6.4 70 2.5 SW 6 9 3 5 1016.5 1016.3 0.2
28/12:00am 12.2 10.1 6.0 66 2.9 WSW 6 11 3 6 1016.8 1016.6 0.2
 
Date/Time
EST
Temp
°C
App
Temp
°C
Dew
Point
Rel
Hum
%
Delta-T
°C
Wind Press
QNH
hPa
Press
MSL
hPa
Rain
since 9 am
mm
Dir
 
Spd
km/h
Gust
km/h
Spd
kts
Gust
kts
27/11:30pm 12.9 10.3 6.0 63 3.3 WSW 9 13 5 7 1016.8 1016.6 0.2
27/11:00pm 12.9 10.6 5.8 62 3.4 WSW 7 13 4 7 1016.9 1016.7 0.2
27/10:30pm 13.2 10.5 5.6 60 3.6 WSW 9 13 5 7 1016.8 1016.6 0.2
27/10:00pm 13.3 10.5 5.2 58 3.8 WSW 9 11 5 6 1016.8 1016.6 0.2
27/09:30pm 13.6 10.7 4.7 55 4.1 W 9 15 5 8 1016.7 1016.5 0.2
27/09:00pm 13.9 11.6 4.8 54 4.2 WNW 6 9 3 5 1016.9 1016.7 0.2
27/08:30pm 14.0 11.7 5.6 57 4.0 W 7 9 4 5 1016.8 1016.6 0.2
27/08:00pm 14.6 12.6 6.2 57 4.1 W 6 11 3 6 1016.4 1016.2 0.2
27/07:30pm 15.2 12.2 6.0 54 4.4 SW 11 19 6 10 1016.3 1016.1 0.2
27/07:00pm 14.6 9.4 7.2 61 3.6 S 24 41 13 22 1016.0 1015.8 0.2
27/06:55pm 14.6 7.7 6.4 58 4.0 SSE 32 41 17 22 1015.9 1015.7 0.2
27/06:51pm 15.7 5.5 5.3 50 5.0 SSW 48 78 26 42 1016.0 1015.8 0.0
27/06:30pm 17.1 12.5 3.8 41 6.2 S 17 26 9 14 1015.8 1015.6 0.0
27/06:00pm 17.5 12.5 3.8 40 6.4 S 19 28 10 15 1015.2 1015.0 0.0
27/05:30pm 18.6 15.4 2.9 35 7.3 S 9 17 5 9 1014.5 1014.3 0.0
27/05:00pm 19.3 15.3 2.6 33 7.8 SSW 13 26 7 14 1013.9 1013.8 0.0
27/04:30pm 20.2 15.1 3.0 32 8.1 SSW 19 30 10 16 1013.7 1013.6 0.0
27/04:00pm 20.4 14.7 4.8 36 7.6 SSW 24 39 13 21 1013.3 1013.2 0.0
27/03:30pm 20.5 15.7 4.9 36 7.7 S 19 32 10 17 1013.1 1013.0 0.0
27/03:00pm 20.2 14.9 5.1 37 7.4 SSW 22 41 12 22 1013.0 1012.9 0.0
27/02:30pm 21.5 16.6 7.0 39 7.5 S 22 30 12 16 1013.0 1012.9 0.0
27/02:27pm 22.5 15.8 7.5 38 7.8 SW 32 54 17 29 1013.0 1012.9 0.0
27/02:26pm 22.3 14.8 6.5 36 8.1 WSW 35 54 19 29 1012.8 1012.7 0.0
27/02:00pm 21.3 18.1 5.2 35 8.0 W 11 20 6 11 1013.1 1013.0 0.0
27/01:30pm 22.6 19.8 6.8 36 8.2 WNW 11 20 6 11 1013.4 1013.3 0.0
27/01:00pm 21.9 18.4 7.0 38 7.7 WNW 15 22 8 12 1013.8 1013.7 0.0
27/12:30pm 21.7 19.0 7.5 40 7.4 WNW 11 20 6 11 1014.4 1014.2 0.0
27/12:00pm 21.1 18.0 7.3 41 7.1 W 13 20 7 11 1015.0 1014.8 0.0
27/11:30am 20.7 19.1 8.0 44 6.6 SE 6 13 3 7 1015.5 1015.3 0.0
27/11:00am 19.6 17.8 7.0 44 6.4 WNW 6 11 3 6 1016.0 1015.8 0.0
27/10:30am 18.7 16.7 7.2 47 5.8 NNW 7 13 4 7 1016.5 1016.3 0.0
27/10:00am 17.6 15.2 5.2 44 6.0 W 7 11 4 6 1017.0 1016.8 0.0
27/09:30am 16.9 14.2 5.8 48 5.4 W 9 15 5 8 1017.1 1016.9 0.0
27/09:00am 15.9 13.5 6.9 55 4.4 W 9 13 5 7 1017.2 1017.0 3.6
27/08:30am 14.6 12.6 6.9 60 3.8 W 7 11 4 6 1017.1 1016.9 3.6
27/08:00am 13.9 11.8 6.5 61 3.6 W 7 9 4 5 1017.0 1016.8 3.6
27/07:30am 13.3 12.2 9.9 80 1.8 WSW 6 7 3 4 1016.6 1016.4 3.6
27/07:00am 11.9 12.1 10.6 92 0.7 CALM 0 0 0 0 1016.1 1015.9 3.6
27/06:30am 11.3 11.5 10.4 94 0.5 CALM 0 0 0 0 1016.0 1015.8 3.6
27/06:00am 11.3 11.5 10.4 94 0.5 CALM 0 0 0 0 1016.1 1015.9 3.6
27/05:30am 11.7 10.8 9.3 85 1.2 SSW 4 6 2 3 1015.8 1015.6 3.6
27/05:00am 12.0 11.7 10.2 89 0.9 N 2 6 1 3 1015.4 1015.2 3.6
27/04:30am 13.4 12.1 9.1 75 2.2 W 6 9 3 5 1015.7 1015.5 3.6
27/04:00am 14.0 13.9 12.2 89 1.0 W 4 9 2 5 1015.4 1015.2 3.6
27/03:30am 14.4 15.5 13.6 95 0.4 CALM 0 2 0 1 1015.4 1015.2 3.6
27/03:00am 14.3 15.1 13.7 96 0.3 W 2 4 1 2 1015.6 1015.4 3.4
27/02:30am 14.3 14.9 13.2 93 0.6 N 2 6 1 3 1015.9 1015.7 0.8
27/02:00am 14.1 14.9 12.5 90 0.9 CALM 0 0 0 0 1016.0 1015.8 0.0
27/01:30am 13.7 14.0 12.3 91 0.8 SSW 2 4 1 2 1016.2 1016.0 0.0
27/01:00am 13.2 13.6 11.4 89 1.0 CALM 0 0 0 0 1016.6 1016.4 0.0
27/12:30am 13.2 12.9 11.4 89 1.0 S 4 6 2 3 1016.8 1016.6 0.0
27/12:00am 14.0 14.7 12.2 89 1.0 CALM 0 0 0 0 1016.8 1016.6 0.0
 
Date/Time
EST
Temp
°C
App
Temp
°C
Dew
Point
Rel
Hum
%
Delta-T
°C
Wind Press
QNH
hPa
Press
MSL
hPa
Rain
since 9 am
mm
Dir
 
Spd
km/h
Gust
km/h
Spd
kts
Gust
kts
26/11:30pm 15.1 15.9 12.4 84 1.5 CALM 0 0 0 0 1017.1 1016.9 0.0
26/11:00pm 15.7 16.5 12.6 82 1.7 CALM 0 0 0 0 1017.1 1016.9 0.0
26/10:30pm 16.4 16.8 12.6 78 2.1 N 2 4 1 2 1017.1 1016.9 0.0
26/10:00pm 16.9 16.5 12.4 75 2.5 N 6 7 3 4 1016.9 1016.7 0.0
26/09:30pm 17.4 17.1 12.7 74 2.6 N 6 9 3 5 1016.9 1016.7 0.0
26/09:00pm 17.3 17.1 11.8 70 3.0 NNE 4 9 2 5 1016.7 1016.5 0.0
26/08:30pm 18.3 17.8 12.1 67 3.4 NE 6 7 3 4 1016.5 1016.3 0.0
26/08:00pm 18.4 16.7 11.2 63 3.9 ENE 11 19 6 10 1016.2 1016.0 0.0
26/07:30pm 17.0 16.5 7.9 55 4.6 CALM 0 4 0 2 1015.5 1015.3 0.0
26/07:00pm 19.1 18.5 7.5 47 5.9 CALM 0 0 0 0 1015.1 1014.9 0.0
26/06:30pm 18.4 17.8 7.5 49 5.6 CALM 0 0 0 0 1014.7 1014.5 0.0
26/06:00pm 19.9 19.0 5.9 40 7.0 CALM 0 0 0 0 1014.4 1014.2 0.0
26/05:30pm 22.5 20.4 4.1 30 9.0 S 4 6 2 3 1013.9 1013.8 0.0
26/05:00pm 23.9 21.4 3.8 27 9.9 ESE 6 9 3 5 1013.7 1013.6 0.0
26/04:30pm 24.5 21.9 4.3 27 10.1 S 7 15 4 8 1013.6 1013.5 0.0
26/04:00pm 24.9 21.5 4.1 26 10.4 WSW 11 17 6 9 1013.6 1013.5 0.0
26/03:30pm 25.1 23.2 4.8 27 10.3 S 4 11 2 6 1013.6 1013.5 0.0
26/03:00pm 24.9 22.1 5.2 28 10.0 SW 9 15 5 8 1013.7 1013.6 0.0
26/02:30pm 24.7 21.2 5.5 29 9.8 WSW 13 20 7 11 1013.9 1013.8 0.0
26/02:00pm 24.4 20.8 5.2 29 9.7 SSW 13 24 7 13 1014.3 1014.1 0.0
26/01:30pm 24.3 21.6 5.6 30 9.5 W 9 19 5 10 1014.6 1014.4 0.0
26/01:00pm 23.6 20.2 4.0 28 9.7 S 11 20 6 11 1015.1 1014.9 0.0
26/12:30pm 23.7 20.6 5.6 31 9.2 S 11 20 6 11 1015.6 1015.4 0.0
26/12:00pm 23.6 20.4 5.0 30 9.3 SSW 11 22 6 12 1016.3 1016.1 0.0
26/11:30am 22.9 19.8 7.1 36 8.2 SW 13 24 7 13 1016.9 1016.7 0.0
26/11:00am 22.6 19.5 9.0 42 7.3 WSW 15 24 8 13 1017.5 1017.3 0.0
26/10:30am 21.8 20.5 10.0 47 6.4 S 7 17 4 9 1017.9 1017.8 0.0
26/10:00am 20.2 19.4 10.9 55 5.1 NW 6 9 3 5 1018.3 1018.2 0.0
26/09:30am 19.4 18.1 11.2 59 4.5 W 9 15 5 8 1018.5 1018.4 0.0
26/09:00am 17.9 16.1 10.8 63 3.8 W 11 15 6 8 1018.6 1018.5 0.0
26/08:30am 16.4 15.1 11.1 71 2.9 WSW 9 13 5 7 1018.6 1018.5 0.0
26/08:00am 14.8 13.0 11.0 78 2.0 WSW 11 15 6 8 1018.7 1018.6 0.0
26/07:30am 13.2 12.2 10.9 86 1.2 SW 7 11 4 6 1018.6 1018.5 0.0
26/07:00am 10.5 10.5 9.9 96 0.3 CALM 0 0 0 0 1018.6 1018.5 0.0
26/06:30am 9.6 9.0 9.1 97 0.2 SW 2 4 1 2 1018.2 1018.1 0.0
26/06:00am 8.9 8.6 8.5 97 0.2 CALM 0 0 0 0 1018.1 1018.0 0.0
26/05:30am 9.1 8.8 8.6 97 0.2 CALM 0 0 0 0 1017.6 1017.4 0.0
26/05:00am 9.5 9.2 8.7 95 0.4 CALM 0 0 0 0 1017.2 1017.0 0.0
26/04:30am 10.0 9.8 9.2 95 0.4 CALM 0 0 0 0 1017.1 1016.9 0.0
26/04:00am 10.6 10.7 10.0 96 0.3 CALM 0 4 0 2 1017.4 1017.2 0.0
26/03:30am 10.5 10.4 9.4 93 0.6 CALM 0 0 0 0 1017.5 1017.3 0.0
26/03:00am 11.8 12.0 10.4 91 0.7 CALM 0 0 0 0 1017.6 1017.4 0.0
26/02:30am 11.9 12.2 10.8 93 0.6 CALM 0 0 0 0 1017.7 1017.5 0.0
26/02:00am 12.1 12.4 11.0 93 0.6 CALM 0 0 0 0 1018.0 1017.9 0.0
26/01:30am 12.6 12.7 10.3 86 1.2 CALM 0 0 0 0 1018.3 1018.2 0.0
26/01:00am 13.8 14.1 11.0 83 1.5 CALM 0 0 0 0 1018.6 1018.5 0.0
26/12:30am 12.8 12.9 10.3 85 1.3 CALM 0 4 0 2 1018.8 1018.7 0.0
26/12:00am 14.0 14.0 11.2 83 1.5 WSW 2 4 1 2 1019.0 1018.9 0.0
 
Date/Time
EST
Temp
°C
App
Temp
°C
Dew
Point
Rel
Hum
%
Delta-T
°C
Wind Press
QNH
hPa
Press
MSL
hPa
Rain
since 9 am
mm
Dir
 
Spd
km/h
Gust
km/h
Spd
kts
Gust
kts
25/11:30pm 14.0 14.3 11.0 82 1.6 CALM 0 0 0 0 1018.9 1018.8 0.0
25/11:00pm 14.5 14.7 10.5 77 2.1 CALM 0 0 0 0 1018.8 1018.7 0.0
25/10:30pm 15.6 15.8 10.6 72 2.7 CALM 0 0 0 0 1018.8 1018.7 0.0
25/10:00pm 16.2 16.6 11.2 72 2.7 CALM 0 0 0 0 1018.9 1018.8 0.0
25/09:30pm 16.1 15.5 10.4 69 3.0 ENE 4 6 2 3 1019.0 1018.9 0.0
25/09:00pm 17.1 17.5 11.2 68 3.2 CALM 0 0 0 0 1018.9 1018.8 0.0
25/08:30pm 17.2 16.4 11.2 68 3.3 NNE 6 11 3 6 1018.7 1018.6 0.0
25/08:00pm 16.5 16.1 9.9 65 3.5 ESE 2 13 1 7 1018.6 1018.5 0.0
25/07:30pm 18.3 18.5 10.7 61 4.1 CALM 0 0 0 0 1018.4 1018.3 0.0
25/07:00pm 18.9 18.9 9.9 56 4.8 CALM 0 0 0 0 1018.0 1017.9 0.0
25/06:30pm 20.6 20.0 8.9 47 6.2 SSE 2 4 1 2 1017.6 1017.4 0.0
25/06:00pm 21.4 20.5 9.3 46 6.5 S 4 6 2 3 1017.4 1017.2 0.0
25/05:30pm 22.3 21.7 8.8 42 7.2 SSE 2 6 1 3 1017.2 1017.0 0.0
25/05:00pm 23.1 21.0 8.4 39 7.8 SSE 9 17 5 9 1017.0 1016.8 0.0
25/04:30pm 24.4 22.1 7.5 34 8.9 SE 9 19 5 10 1016.7 1016.5 0.0
25/04:00pm 24.7 21.0 7.8 34 9.0 SE 17 26 9 14 1016.7 1016.5 0.0
25/03:30pm 24.8 21.3 7.0 32 9.3 S 15 22 8 12 1016.7 1016.5 0.0

Other Formats:

Comma delimited format used in spreadsheet applications
http://www.bom.gov.au/fwo/IDQ60801/IDQ60801.95543.axf

JavaScript Object Notation format (JSON) in row-major order
http://www.bom.gov.au/fwo/IDQ60801/IDQ60801.95543.json